sensor_id;sensor_type;location;lat;lon;timestamp;temperature;humidity
15926;DHT22;8062;53.882;10.642;2024-01-27T00:01:04;5.60;99.90
15926;DHT22;8062;53.882;10.642;2024-01-27T00:02:23;5.60;99.90
15926;DHT22;8062;53.882;10.642;2024-01-27T00:03:43;5.60;99.90
15926;DHT22;8062;53.882;10.642;2024-01-27T00:05:03;5.60;99.90
15926;DHT22;8062;53.882;10.642;2024-01-27T00:06:22;5.60;99.90
15926;DHT22;8062;53.882;10.642;2024-01-27T00:07:42;5.60;99.90
15926;DHT22;8062;53.882;10.642;2024-01-27T00:09:02;5.60;99.90
15926;DHT22;8062;53.882;10.642;2024-01-27T00:10:21;5.60;99.90
15926;DHT22;8062;53.882;10.642;2024-01-27T00:11:41;5.70;99.90
15926;DHT22;8062;53.882;10.642;2024-01-27T00:13:00;5.60;99.90
15926;DHT22;8062;53.882;10.642;2024-01-27T00:14:20;5.60;99.90
15926;DHT22;8062;53.882;10.642;2024-01-27T00:15:39;5.60;99.90
15926;DHT22;8062;53.882;10.642;2024-01-27T00:16:59;5.60;99.90
15926;DHT22;8062;53.882;10.642;2024-01-27T00:18:18;5.60;99.90
15926;DHT22;8062;53.882;10.642;2024-01-27T00:19:37;5.60;99.90
15926;DHT22;8062;53.882;10.642;2024-01-27T00:20:57;5.60;99.90
15926;DHT22;8062;53.882;10.642;2024-01-27T00:22:17;5.60;99.90
15926;DHT22;8062;53.882;10.642;2024-01-27T00:23:37;5.60;99.90
15926;DHT22;8062;53.882;10.642;2024-01-27T00:24:56;5.60;99.90
15926;DHT22;8062;53.882;10.642;2024-01-27T00:26:16;5.50;99.90
15926;DHT22;8062;53.882;10.642;2024-01-27T00:27:36;5.50;99.90
15926;DHT22;8062;53.882;10.642;2024-01-27T00:28:55;5.50;99.90
15926;DHT22;8062;53.882;10.642;2024-01-27T00:30:15;5.50;99.90
15926;DHT22;8062;53.882;10.642;2024-01-27T00:31:34;5.50;99.90
15926;DHT22;8062;53.882;10.642;2024-01-27T00:32:54;5.60;99.90
15926;DHT22;8062;53.882;10.642;2024-01-27T00:34:13;5.50;99.90
15926;DHT22;8062;53.882;10.642;2024-01-27T00:35:33;5.50;99.90
15926;DHT22;8062;53.882;10.642;2024-01-27T00:36:52;5.50;99.90
15926;DHT22;8062;53.882;10.642;2024-01-27T00:38:11;5.50;99.90
15926;DHT22;8062;53.882;10.642;2024-01-27T00:39:31;5.50;99.90
15926;DHT22;8062;53.882;10.642;2024-01-27T00:40:52;5.60;99.90
15926;DHT22;8062;53.882;10.642;2024-01-27T00:42:12;5.60;99.90
15926;DHT22;8062;53.882;10.642;2024-01-27T00:43:32;5.60;99.90
15926;DHT22;8062;53.882;10.642;2024-01-27T00:44:52;5.60;99.90
15926;DHT22;8062;53.882;10.642;2024-01-27T00:46:11;5.60;99.90
15926;DHT22;8062;53.882;10.642;2024-01-27T00:47:31;5.60;99.90
15926;DHT22;8062;53.882;10.642;2024-01-27T00:48:50;5.50;99.90
15926;DHT22;8062;53.882;10.642;2024-01-27T00:50:10;5.60;99.90
15926;DHT22;8062;53.882;10.642;2024-01-27T00:51:30;5.60;99.90
15926;DHT22;8062;53.882;10.642;2024-01-27T00:52:50;5.50;99.90
15926;DHT22;8062;53.882;10.642;2024-01-27T00:54:10;5.60;99.90
15926;DHT22;8062;53.882;10.642;2024-01-27T00:55:29;5.60;99.90
15926;DHT22;8062;53.882;10.642;2024-01-27T00:56:49;5.70;99.90
15926;DHT22;8062;53.882;10.642;2024-01-27T00:58:08;5.70;99.90
15926;DHT22;8062;53.882;10.642;2024-01-27T00:59:28;5.70;99.90
15926;DHT22;8062;53.882;10.642;2024-01-27T01:00:47;5.70;99.90
15926;DHT22;8062;53.882;10.642;2024-01-27T01:02:07;5.70;99.90
15926;DHT22;8062;53.882;10.642;2024-01-27T01:03:27;5.70;99.90
15926;DHT22;8062;53.882;10.642;2024-01-27T01:04:46;5.70;99.90
15926;DHT22;8062;53.882;10.642;2024-01-27T01:06:07;5.70;99.90
15926;DHT22;8062;53.882;10.642;2024-01-27T01:07:26;5.70;99.90
15926;DHT22;8062;53.882;10.642;2024-01-27T01:08:46;5.80;99.90
15926;DHT22;8062;53.882;10.642;2024-01-27T01:10:06;5.70;99.90
15926;DHT22;8062;53.882;10.642;2024-01-27T01:11:26;5.80;99.90
15926;DHT22;8062;53.882;10.642;2024-01-27T01:12:46;5.80;99.90
15926;DHT22;8062;53.882;10.642;2024-01-27T01:14:05;5.80;99.90
15926;DHT22;8062;53.882;10.642;2024-01-27T01:15:24;5.80;99.90
15926;DHT22;8062;53.882;10.642;2024-01-27T01:16:44;5.80;99.90
15926;DHT22;8062;53.882;10.642;2024-01-27T01:18:03;5.80;99.90
15926;DHT22;8062;53.882;10.642;2024-01-27T01:19:23;5.80;99.90
15926;DHT22;8062;53.882;10.642;2024-01-27T01:20:43;5.80;99.90
15926;DHT22;8062;53.882;10.642;2024-01-27T01:22:02;5.80;99.90
15926;DHT22;8062;53.882;10.642;2024-01-27T01:23:22;5.90;99.90
15926;DHT22;8062;53.882;10.642;2024-01-27T01:24:41;5.80;99.90
15926;DHT22;8062;53.882;10.642;2024-01-27T01:26:01;5.80;99.90
15926;DHT22;8062;53.882;10.642;2024-01-27T01:27:20;5.80;99.90
15926;DHT22;8062;53.882;10.642;2024-01-27T01:28:41;5.80;99.90
15926;DHT22;8062;53.882;10.642;2024-01-27T01:30:00;5.80;99.90
15926;DHT22;8062;53.882;10.642;2024-01-27T01:31:20;5.80;99.90
15926;DHT22;8062;53.882;10.642;2024-01-27T01:32:39;5.80;99.90
15926;DHT22;8062;53.882;10.642;2024-01-27T01:33:59;5.80;99.90
15926;DHT22;8062;53.882;10.642;2024-01-27T01:35:18;5.70;99.90
15926;DHT22;8062;53.882;10.642;2024-01-27T01:36:38;5.70;99.90
15926;DHT22;8062;53.882;10.642;2024-01-27T01:37:57;5.80;99.90
15926;DHT22;8062;53.882;10.642;2024-01-27T01:39:17;5.80;99.90
15926;DHT22;8062;53.882;10.642;2024-01-27T01:40:36;5.80;99.90
15926;DHT22;8062;53.882;10.642;2024-01-27T01:41:55;5.80;99.90
15926;DHT22;8062;53.882;10.642;2024-01-27T01:43:15;5.80;99.90
15926;DHT22;8062;53.882;10.642;2024-01-27T01:44:34;5.70;99.90
15926;DHT22;8062;53.882;10.642;2024-01-27T01:45:54;5.80;99.90
15926;DHT22;8062;53.882;10.642;2024-01-27T01:47:14;5.80;99.90
15926;DHT22;8062;53.882;10.642;2024-01-27T01:48:33;5.80;99.90
15926;DHT22;8062;53.882;10.642;2024-01-27T01:49:53;5.80;99.90
15926;DHT22;8062;53.882;10.642;2024-01-27T01:51:18;5.80;99.90
15926;DHT22;8062;53.882;10.642;2024-01-27T01:52:38;5.80;99.90
15926;DHT22;8062;53.882;10.642;2024-01-27T01:53:58;5.80;99.90
15926;DHT22;8062;53.882;10.642;2024-01-27T01:55:18;5.80;99.90
15926;DHT22;8062;53.882;10.642;2024-01-27T01:56:38;5.80;99.90
15926;DHT22;8062;53.882;10.642;2024-01-27T01:57:57;5.80;99.90
15926;DHT22;8062;53.882;10.642;2024-01-27T01:59:17;5.80;99.90
15926;DHT22;8062;53.882;10.642;2024-01-27T02:00:36;5.90;99.90
15926;DHT22;8062;53.882;10.642;2024-01-27T02:01:56;5.90;99.90
15926;DHT22;8062;53.882;10.642;2024-01-27T02:03:16;5.90;99.90
15926;DHT22;8062;53.882;10.642;2024-01-27T02:04:45;5.90;99.90
15926;DHT22;8062;53.882;10.642;2024-01-27T02:06:07;5.90;99.90
15926;DHT22;8062;53.882;10.642;2024-01-27T02:07:27;5.90;99.90
15926;DHT22;8062;53.882;10.642;2024-01-27T02:08:47;5.90;99.90
15926;DHT22;8062;53.882;10.642;2024-01-27T02:10:15;5.90;99.90
15926;DHT22;8062;53.882;10.642;2024-01-27T02:11:38;5.90;99.90
15926;DHT22;8062;53.882;10.642;2024-01-27T02:12:57;5.90;99.90
15926;DHT22;8062;53.882;10.642;2024-01-27T02:14:17;5.90;99.90
15926;DHT22;8062;53.882;10.642;2024-01-27T02:15:36;5.90;99.90
15926;DHT22;8062;53.882;10.642;2024-01-27T02:16:56;5.90;99.90
15926;DHT22;8062;53.882;10.642;2024-01-27T02:18:16;6.00;99.90
15926;DHT22;8062;53.882;10.642;2024-01-27T02:19:36;5.90;99.90
15926;DHT22;8062;53.882;10.642;2024-01-27T02:20:55;5.90;99.90
15926;DHT22;8062;53.882;10.642;2024-01-27T02:22:15;6.00;99.90
15926;DHT22;8062;53.882;10.642;2024-01-27T02:23:34;6.00;99.90
15926;DHT22;8062;53.882;10.642;2024-01-27T02:24:54;5.90;99.90
15926;DHT22;8062;53.882;10.642;2024-01-27T02:26:13;6.00;99.90
15926;DHT22;8062;53.882;10.642;2024-01-27T02:27:32;5.90;99.90
15926;DHT22;8062;53.882;10.642;2024-01-27T02:28:52;5.90;99.90
15926;DHT22;8062;53.882;10.642;2024-01-27T02:30:11;5.90;99.90
15926;DHT22;8062;53.882;10.642;2024-01-27T02:31:31;5.90;99.90
15926;DHT22;8062;53.882;10.642;2024-01-27T02:32:51;5.90;99.90
15926;DHT22;8062;53.882;10.642;2024-01-27T02:34:11;5.90;99.90
15926;DHT22;8062;53.882;10.642;2024-01-27T02:35:31;5.90;99.90
15926;DHT22;8062;53.882;10.642;2024-01-27T02:36:50;5.90;99.90
15926;DHT22;8062;53.882;10.642;2024-01-27T02:38:10;5.90;99.90
15926;DHT22;8062;53.882;10.642;2024-01-27T02:39:29;5.90;99.90
15926;DHT22;8062;53.882;10.642;2024-01-27T02:40:48;5.90;99.90
15926;DHT22;8062;53.882;10.642;2024-01-27T02:42:08;5.90;99.90
15926;DHT22;8062;53.882;10.642;2024-01-27T02:43:27;5.80;99.90
15926;DHT22;8062;53.882;10.642;2024-01-27T02:44:47;5.90;99.90
15926;DHT22;8062;53.882;10.642;2024-01-27T02:46:09;5.90;99.90
15926;DHT22;8062;53.882;10.642;2024-01-27T02:47:29;5.90;99.90
15926;DHT22;8062;53.882;10.642;2024-01-27T02:48:49;5.90;99.90
15926;DHT22;8062;53.882;10.642;2024-01-27T02:50:09;5.90;99.90
15926;DHT22;8062;53.882;10.642;2024-01-27T02:51:28;5.90;99.90
15926;DHT22;8062;53.882;10.642;2024-01-27T02:52:48;5.90;99.90
15926;DHT22;8062;53.882;10.642;2024-01-27T02:54:07;5.90;99.90
15926;DHT22;8062;53.882;10.642;2024-01-27T02:55:26;5.90;99.90
15926;DHT22;8062;53.882;10.642;2024-01-27T02:56:46;5.90;99.90
15926;DHT22;8062;53.882;10.642;2024-01-27T02:58:06;5.90;99.90
15926;DHT22;8062;53.882;10.642;2024-01-27T02:59:25;5.90;99.90
15926;DHT22;8062;53.882;10.642;2024-01-27T03:00:45;5.90;99.90
15926;DHT22;8062;53.882;10.642;2024-01-27T03:02:05;5.90;99.90
15926;DHT22;8062;53.882;10.642;2024-01-27T03:03:24;5.90;99.90
15926;DHT22;8062;53.882;10.642;2024-01-27T03:04:44;5.90;99.90
15926;DHT22;8062;53.882;10.642;2024-01-27T03:06:03;6.00;99.90
15926;DHT22;8062;53.882;10.642;2024-01-27T03:07:23;6.00;99.90
15926;DHT22;8062;53.882;10.642;2024-01-27T03:08:43;5.90;99.90
15926;DHT22;8062;53.882;10.642;2024-01-27T03:10:03;5.90;99.90
15926;DHT22;8062;53.882;10.642;2024-01-27T03:11:23;5.90;99.90
15926;DHT22;8062;53.882;10.642;2024-01-27T03:12:43;6.00;99.90
15926;DHT22;8062;53.882;10.642;2024-01-27T03:14:02;5.90;99.90
15926;DHT22;8062;53.882;10.642;2024-01-27T03:15:22;6.00;99.90
15926;DHT22;8062;53.882;10.642;2024-01-27T03:16:43;6.00;99.90
15926;DHT22;8062;53.882;10.642;2024-01-27T03:18:03;6.00;99.90
15926;DHT22;8062;53.882;10.642;2024-01-27T03:19:22;6.00;99.90
15926;DHT22;8062;53.882;10.642;2024-01-27T03:20:42;6.00;99.90
15926;DHT22;8062;53.882;10.642;2024-01-27T03:22:01;6.00;99.90
15926;DHT22;8062;53.882;10.642;2024-01-27T03:23:21;6.00;99.90
15926;DHT22;8062;53.882;10.642;2024-01-27T03:24:40;6.00;99.90
15926;DHT22;8062;53.882;10.642;2024-01-27T03:26:02;6.00;99.90
15926;DHT22;8062;53.882;10.642;2024-01-27T03:27:22;6.10;99.90
15926;DHT22;8062;53.882;10.642;2024-01-27T03:28:41;6.10;99.90
15926;DHT22;8062;53.882;10.642;2024-01-27T03:30:01;6.10;99.90
15926;DHT22;8062;53.882;10.642;2024-01-27T03:31:21;6.10;99.90
15926;DHT22;8062;53.882;10.642;2024-01-27T03:32:41;6.10;99.90
15926;DHT22;8062;53.882;10.642;2024-01-27T03:34:02;6.10;99.90
15926;DHT22;8062;53.882;10.642;2024-01-27T03:35:21;6.10;99.90
15926;DHT22;8062;53.882;10.642;2024-01-27T03:36:41;6.20;99.90
15926;DHT22;8062;53.882;10.642;2024-01-27T03:38:01;6.10;99.90
15926;DHT22;8062;53.882;10.642;2024-01-27T03:39:20;6.10;99.90
15926;DHT22;8062;53.882;10.642;2024-01-27T03:40:40;6.10;99.90
15926;DHT22;8062;53.882;10.642;2024-01-27T03:41:59;6.10;99.90
15926;DHT22;8062;53.882;10.642;2024-01-27T03:43:19;6.10;99.90
15926;DHT22;8062;53.882;10.642;2024-01-27T03:44:38;6.10;99.90
15926;DHT22;8062;53.882;10.642;2024-01-27T03:45:58;6.10;99.90
15926;DHT22;8062;53.882;10.642;2024-01-27T03:47:17;6.20;99.90
15926;DHT22;8062;53.882;10.642;2024-01-27T03:48:37;6.20;99.90
15926;DHT22;8062;53.882;10.642;2024-01-27T03:49:57;6.10;99.90
15926;DHT22;8062;53.882;10.642;2024-01-27T03:51:16;6.10;99.90
15926;DHT22;8062;53.882;10.642;2024-01-27T03:52:36;6.10;99.90
15926;DHT22;8062;53.882;10.642;2024-01-27T03:53:55;6.20;99.90
15926;DHT22;8062;53.882;10.642;2024-01-27T03:55:15;6.20;99.90
15926;DHT22;8062;53.882;10.642;2024-01-27T03:56:34;6.20;99.90
15926;DHT22;8062;53.882;10.642;2024-01-27T03:57:54;6.20;99.90
15926;DHT22;8062;53.882;10.642;2024-01-27T03:59:13;6.20;99.90
15926;DHT22;8062;53.882;10.642;2024-01-27T04:00:33;6.20;99.90
15926;DHT22;8062;53.882;10.642;2024-01-27T04:01:53;6.20;99.90
15926;DHT22;8062;53.882;10.642;2024-01-27T04:03:12;6.20;99.90
15926;DHT22;8062;53.882;10.642;2024-01-27T04:04:31;6.20;99.90
15926;DHT22;8062;53.882;10.642;2024-01-27T04:05:51;6.20;99.90
15926;DHT22;8062;53.882;10.642;2024-01-27T04:07:11;6.20;99.90
15926;DHT22;8062;53.882;10.642;2024-01-27T04:08:30;6.20;99.90
15926;DHT22;8062;53.882;10.642;2024-01-27T04:09:50;6.20;99.90
15926;DHT22;8062;53.882;10.642;2024-01-27T04:11:09;6.30;99.90
15926;DHT22;8062;53.882;10.642;2024-01-27T04:12:37;6.20;99.90
15926;DHT22;8062;53.882;10.642;2024-01-27T04:13:58;6.30;99.90
15926;DHT22;8062;53.882;10.642;2024-01-27T04:15:17;6.30;99.90
15926;DHT22;8062;53.882;10.642;2024-01-27T04:16:36;6.30;99.90
15926;DHT22;8062;53.882;10.642;2024-01-27T04:17:56;6.30;99.90
15926;DHT22;8062;53.882;10.642;2024-01-27T04:19:15;6.30;99.90
15926;DHT22;8062;53.882;10.642;2024-01-27T04:20:35;6.30;99.90
15926;DHT22;8062;53.882;10.642;2024-01-27T04:21:54;6.30;99.90
15926;DHT22;8062;53.882;10.642;2024-01-27T04:23:14;6.30;99.90
15926;DHT22;8062;53.882;10.642;2024-01-27T04:24:34;6.20;99.90
15926;DHT22;8062;53.882;10.642;2024-01-27T04:25:53;6.30;99.90
15926;DHT22;8062;53.882;10.642;2024-01-27T04:27:12;6.30;99.90
15926;DHT22;8062;53.882;10.642;2024-01-27T04:28:32;6.30;99.90
15926;DHT22;8062;53.882;10.642;2024-01-27T04:29:52;6.30;99.90
15926;DHT22;8062;53.882;10.642;2024-01-27T04:31:11;6.30;99.90
15926;DHT22;8062;53.882;10.642;2024-01-27T04:32:31;6.20;99.90
15926;DHT22;8062;53.882;10.642;2024-01-27T04:33:50;6.30;99.90
15926;DHT22;8062;53.882;10.642;2024-01-27T04:35:10;6.20;99.90
15926;DHT22;8062;53.882;10.642;2024-01-27T04:36:30;6.20;99.90
15926;DHT22;8062;53.882;10.642;2024-01-27T04:37:50;6.10;99.90
15926;DHT22;8062;53.882;10.642;2024-01-27T04:39:10;6.10;99.90
15926;DHT22;8062;53.882;10.642;2024-01-27T04:40:30;6.10;99.90
15926;DHT22;8062;53.882;10.642;2024-01-27T04:41:50;6.10;99.90
15926;DHT22;8062;53.882;10.642;2024-01-27T04:43:09;6.10;99.90
15926;DHT22;8062;53.882;10.642;2024-01-27T04:44:28;6.10;99.90
15926;DHT22;8062;53.882;10.642;2024-01-27T04:45:48;6.10;99.90
15926;DHT22;8062;53.882;10.642;2024-01-27T04:47:08;6.10;99.90
15926;DHT22;8062;53.882;10.642;2024-01-27T04:48:28;6.10;99.90
15926;DHT22;8062;53.882;10.642;2024-01-27T04:49:47;6.10;99.90
15926;DHT22;8062;53.882;10.642;2024-01-27T04:51:07;6.10;99.90
15926;DHT22;8062;53.882;10.642;2024-01-27T04:52:26;6.00;99.90
15926;DHT22;8062;53.882;10.642;2024-01-27T04:53:46;6.10;99.90
15926;DHT22;8062;53.882;10.642;2024-01-27T04:55:06;6.10;99.90
15926;DHT22;8062;53.882;10.642;2024-01-27T04:56:25;6.10;99.90
15926;DHT22;8062;53.882;10.642;2024-01-27T04:57:45;6.10;99.90
15926;DHT22;8062;53.882;10.642;2024-01-27T04:59:04;6.00;99.90
15926;DHT22;8062;53.882;10.642;2024-01-27T05:00:27;6.00;99.90
15926;DHT22;8062;53.882;10.642;2024-01-27T05:01:47;6.00;99.90
15926;DHT22;8062;53.882;10.642;2024-01-27T05:03:07;6.10;99.90
15926;DHT22;8062;53.882;10.642;2024-01-27T05:04:32;6.10;99.90
15926;DHT22;8062;53.882;10.642;2024-01-27T05:05:52;6.00;99.90
15926;DHT22;8062;53.882;10.642;2024-01-27T05:07:12;6.00;99.90
15926;DHT22;8062;53.882;10.642;2024-01-27T05:08:31;6.00;99.90
15926;DHT22;8062;53.882;10.642;2024-01-27T05:09:51;6.00;99.90
15926;DHT22;8062;53.882;10.642;2024-01-27T05:11:10;6.00;99.90
15926;DHT22;8062;53.882;10.642;2024-01-27T05:12:30;6.00;99.90
15926;DHT22;8062;53.882;10.642;2024-01-27T05:13:50;6.00;99.90
15926;DHT22;8062;53.882;10.642;2024-01-27T05:15:10;6.00;99.90
15926;DHT22;8062;53.882;10.642;2024-01-27T05:16:30;6.00;99.90
15926;DHT22;8062;53.882;10.642;2024-01-27T05:17:51;6.00;99.90
15926;DHT22;8062;53.882;10.642;2024-01-27T05:19:11;6.00;99.90
15926;DHT22;8062;53.882;10.642;2024-01-27T05:20:30;6.00;99.90
15926;DHT22;8062;53.882;10.642;2024-01-27T05:21:50;6.00;99.90
15926;DHT22;8062;53.882;10.642;2024-01-27T05:23:09;6.00;99.90
15926;DHT22;8062;53.882;10.642;2024-01-27T05:24:29;5.90;99.90
15926;DHT22;8062;53.882;10.642;2024-01-27T05:25:48;5.90;99.90
15926;DHT22;8062;53.882;10.642;2024-01-27T05:27:08;5.90;99.90
15926;DHT22;8062;53.882;10.642;2024-01-27T05:28:27;5.90;99.90
15926;DHT22;8062;53.882;10.642;2024-01-27T05:29:47;5.90;99.90
15926;DHT22;8062;53.882;10.642;2024-01-27T05:31:07;5.90;99.90
15926;DHT22;8062;53.882;10.642;2024-01-27T05:32:27;5.90;99.90
15926;DHT22;8062;53.882;10.642;2024-01-27T05:33:47;5.90;99.90
15926;DHT22;8062;53.882;10.642;2024-01-27T05:35:07;5.90;99.90
15926;DHT22;8062;53.882;10.642;2024-01-27T05:36:27;5.90;99.90
15926;DHT22;8062;53.882;10.642;2024-01-27T05:37:47;5.90;99.90
15926;DHT22;8062;53.882;10.642;2024-01-27T05:39:06;5.90;99.90
15926;DHT22;8062;53.882;10.642;2024-01-27T05:40:26;5.90;99.90
15926;DHT22;8062;53.882;10.642;2024-01-27T05:41:45;5.90;99.90
15926;DHT22;8062;53.882;10.642;2024-01-27T05:43:06;6.00;99.90
15926;DHT22;8062;53.882;10.642;2024-01-27T05:44:25;5.90;99.90
15926;DHT22;8062;53.882;10.642;2024-01-27T05:45:46;5.90;99.90
15926;DHT22;8062;53.882;10.642;2024-01-27T05:47:06;5.90;99.90
15926;DHT22;8062;53.882;10.642;2024-01-27T05:48:25;5.90;99.90
15926;DHT22;8062;53.882;10.642;2024-01-27T05:49:45;5.90;99.90
15926;DHT22;8062;53.882;10.642;2024-01-27T05:51:04;5.90;99.90
15926;DHT22;8062;53.882;10.642;2024-01-27T05:52:24;5.90;99.90
15926;DHT22;8062;53.882;10.642;2024-01-27T05:53:45;5.90;99.90
15926;DHT22;8062;53.882;10.642;2024-01-27T05:55:06;5.90;99.90
15926;DHT22;8062;53.882;10.642;2024-01-27T05:56:26;5.90;99.90
15926;DHT22;8062;53.882;10.642;2024-01-27T05:57:45;5.90;99.90
15926;DHT22;8062;53.882;10.642;2024-01-27T05:59:05;5.90;99.90
15926;DHT22;8062;53.882;10.642;2024-01-27T06:00:24;5.90;99.90
15926;DHT22;8062;53.882;10.642;2024-01-27T06:01:44;5.90;99.90
15926;DHT22;8062;53.882;10.642;2024-01-27T06:03:04;5.90;99.90
15926;DHT22;8062;53.882;10.642;2024-01-27T06:04:24;5.90;99.90
15926;DHT22;8062;53.882;10.642;2024-01-27T06:05:43;5.90;99.90
15926;DHT22;8062;53.882;10.642;2024-01-27T06:07:03;5.90;99.90
15926;DHT22;8062;53.882;10.642;2024-01-27T06:08:22;5.90;99.90
15926;DHT22;8062;53.882;10.642;2024-01-27T06:09:42;5.90;99.90
15926;DHT22;8062;53.882;10.642;2024-01-27T06:11:01;5.90;99.90
15926;DHT22;8062;53.882;10.642;2024-01-27T06:12:22;5.80;99.90
15926;DHT22;8062;53.882;10.642;2024-01-27T06:13:42;5.80;99.90
15926;DHT22;8062;53.882;10.642;2024-01-27T06:15:03;5.80;99.90
15926;DHT22;8062;53.882;10.642;2024-01-27T06:16:23;5.90;99.90
15926;DHT22;8062;53.882;10.642;2024-01-27T06:17:42;5.80;99.90
15926;DHT22;8062;53.882;10.642;2024-01-27T06:19:02;5.90;99.90
15926;DHT22;8062;53.882;10.642;2024-01-27T06:20:21;5.90;99.90
15926;DHT22;8062;53.882;10.642;2024-01-27T06:21:41;5.80;99.90
15926;DHT22;8062;53.882;10.642;2024-01-27T06:23:00;5.90;99.90
15926;DHT22;8062;53.882;10.642;2024-01-27T06:24:20;5.90;99.90
15926;DHT22;8062;53.882;10.642;2024-01-27T06:25:39;5.90;99.90
15926;DHT22;8062;53.882;10.642;2024-01-27T06:26:59;5.90;99.90
15926;DHT22;8062;53.882;10.642;2024-01-27T06:28:19;5.90;99.90
15926;DHT22;8062;53.882;10.642;2024-01-27T06:29:38;5.90;99.90
15926;DHT22;8062;53.882;10.642;2024-01-27T06:30:59;5.90;99.90
15926;DHT22;8062;53.882;10.642;2024-01-27T06:32:19;5.90;99.90
15926;DHT22;8062;53.882;10.642;2024-01-27T06:33:38;5.90;99.90
15926;DHT22;8062;53.882;10.642;2024-01-27T06:34:58;5.90;99.90
15926;DHT22;8062;53.882;10.642;2024-01-27T06:36:17;5.90;99.90
15926;DHT22;8062;53.882;10.642;2024-01-27T06:37:37;5.90;99.90
15926;DHT22;8062;53.882;10.642;2024-01-27T06:38:57;5.90;99.90
15926;DHT22;8062;53.882;10.642;2024-01-27T06:40:16;6.00;99.90
15926;DHT22;8062;53.882;10.642;2024-01-27T06:41:35;6.00;99.90
15926;DHT22;8062;53.882;10.642;2024-01-27T06:42:55;6.00;99.90
15926;DHT22;8062;53.882;10.642;2024-01-27T06:44:14;6.00;99.90
15926;DHT22;8062;53.882;10.642;2024-01-27T06:45:34;5.90;99.90
15926;DHT22;8062;53.882;10.642;2024-01-27T06:46:53;6.00;99.90
15926;DHT22;8062;53.882;10.642;2024-01-27T06:48:13;5.90;99.90
15926;DHT22;8062;53.882;10.642;2024-01-27T06:49:33;5.90;99.90
15926;DHT22;8062;53.882;10.642;2024-01-27T06:50:53;5.90;99.90
15926;DHT22;8062;53.882;10.642;2024-01-27T06:52:12;6.00;99.90
15926;DHT22;8062;53.882;10.642;2024-01-27T06:53:32;6.00;99.90
15926;DHT22;8062;53.882;10.642;2024-01-27T06:54:51;5.90;99.90
15926;DHT22;8062;53.882;10.642;2024-01-27T06:56:11;5.90;99.90
15926;DHT22;8062;53.882;10.642;2024-01-27T06:57:31;5.90;99.90
15926;DHT22;8062;53.882;10.642;2024-01-27T06:58:51;5.90;99.90
15926;DHT22;8062;53.882;10.642;2024-01-27T07:00:11;5.90;99.90
15926;DHT22;8062;53.882;10.642;2024-01-27T07:01:33;5.90;99.90
15926;DHT22;8062;53.882;10.642;2024-01-27T07:02:52;5.90;99.90
15926;DHT22;8062;53.882;10.642;2024-01-27T07:04:13;5.90;99.90
15926;DHT22;8062;53.882;10.642;2024-01-27T07:05:32;5.90;99.90
15926;DHT22;8062;53.882;10.642;2024-01-27T07:06:57;5.90;99.90
15926;DHT22;8062;53.882;10.642;2024-01-27T07:08:17;5.90;99.90
15926;DHT22;8062;53.882;10.642;2024-01-27T07:09:37;5.90;99.90
15926;DHT22;8062;53.882;10.642;2024-01-27T07:10:56;5.90;99.90
15926;DHT22;8062;53.882;10.642;2024-01-27T07:12:15;5.90;99.90
15926;DHT22;8062;53.882;10.642;2024-01-27T07:13:35;6.00;99.90
15926;DHT22;8062;53.882;10.642;2024-01-27T07:14:55;6.00;99.90
15926;DHT22;8062;53.882;10.642;2024-01-27T07:16:14;5.90;99.90
15926;DHT22;8062;53.882;10.642;2024-01-27T07:17:34;6.00;99.90
15926;DHT22;8062;53.882;10.642;2024-01-27T07:18:53;6.00;99.90
15926;DHT22;8062;53.882;10.642;2024-01-27T07:20:12;6.00;99.90
15926;DHT22;8062;53.882;10.642;2024-01-27T07:21:32;6.00;99.90
15926;DHT22;8062;53.882;10.642;2024-01-27T07:22:51;6.00;99.90
15926;DHT22;8062;53.882;10.642;2024-01-27T07:24:11;6.00;99.90
15926;DHT22;8062;53.882;10.642;2024-01-27T07:25:30;6.00;99.90
15926;DHT22;8062;53.882;10.642;2024-01-27T07:26:50;6.00;99.90
15926;DHT22;8062;53.882;10.642;2024-01-27T07:28:09;6.00;99.90
15926;DHT22;8062;53.882;10.642;2024-01-27T07:29:29;6.00;99.90
15926;DHT22;8062;53.882;10.642;2024-01-27T07:30:49;5.90;99.90
15926;DHT22;8062;53.882;10.642;2024-01-27T07:32:09;5.90;99.90
15926;DHT22;8062;53.882;10.642;2024-01-27T07:33:32;5.90;99.90
15926;DHT22;8062;53.882;10.642;2024-01-27T07:34:51;5.90;99.90
15926;DHT22;8062;53.882;10.642;2024-01-27T07:36:11;6.00;99.90
15926;DHT22;8062;53.882;10.642;2024-01-27T07:37:31;6.00;99.90
15926;DHT22;8062;53.882;10.642;2024-01-27T07:38:50;6.00;99.90
15926;DHT22;8062;53.882;10.642;2024-01-27T07:40:10;6.00;99.90
15926;DHT22;8062;53.882;10.642;2024-01-27T07:41:30;6.00;99.90
15926;DHT22;8062;53.882;10.642;2024-01-27T07:42:49;6.00;99.90
15926;DHT22;8062;53.882;10.642;2024-01-27T07:44:13;5.90;99.90
15926;DHT22;8062;53.882;10.642;2024-01-27T07:45:33;5.90;99.90
15926;DHT22;8062;53.882;10.642;2024-01-27T07:46:53;5.90;99.90
15926;DHT22;8062;53.882;10.642;2024-01-27T07:48:12;5.90;99.90
15926;DHT22;8062;53.882;10.642;2024-01-27T07:49:32;5.90;99.90
15926;DHT22;8062;53.882;10.642;2024-01-27T07:50:51;5.90;99.90
15926;DHT22;8062;53.882;10.642;2024-01-27T07:52:10;5.90;99.90
15926;DHT22;8062;53.882;10.642;2024-01-27T07:53:30;5.90;99.90
15926;DHT22;8062;53.882;10.642;2024-01-27T07:54:49;5.90;99.90
15926;DHT22;8062;53.882;10.642;2024-01-27T07:56:09;5.90;99.90
15926;DHT22;8062;53.882;10.642;2024-01-27T07:57:28;5.90;99.90
15926;DHT22;8062;53.882;10.642;2024-01-27T07:58:48;5.90;99.90
15926;DHT22;8062;53.882;10.642;2024-01-27T08:00:07;5.90;99.90
15926;DHT22;8062;53.882;10.642;2024-01-27T08:01:27;5.90;99.90
15926;DHT22;8062;53.882;10.642;2024-01-27T08:02:46;5.90;99.90
15926;DHT22;8062;53.882;10.642;2024-01-27T08:04:06;5.80;99.90
15926;DHT22;8062;53.882;10.642;2024-01-27T08:05:25;5.80;99.90
15926;DHT22;8062;53.882;10.642;2024-01-27T08:06:50;5.80;99.90
15926;DHT22;8062;53.882;10.642;2024-01-27T08:08:09;5.80;99.90
15926;DHT22;8062;53.882;10.642;2024-01-27T08:09:29;5.80;99.90
15926;DHT22;8062;53.882;10.642;2024-01-27T08:10:49;5.80;99.90
15926;DHT22;8062;53.882;10.642;2024-01-27T08:12:08;5.80;99.90
15926;DHT22;8062;53.882;10.642;2024-01-27T08:13:28;5.80;99.90
15926;DHT22;8062;53.882;10.642;2024-01-27T08:14:47;5.70;99.90
15926;DHT22;8062;53.882;10.642;2024-01-27T08:16:08;5.70;99.90
15926;DHT22;8062;53.882;10.642;2024-01-27T08:17:28;5.80;99.90
15926;DHT22;8062;53.882;10.642;2024-01-27T08:18:48;5.80;99.90
15926;DHT22;8062;53.882;10.642;2024-01-27T08:20:08;5.80;99.90
15926;DHT22;8062;53.882;10.642;2024-01-27T08:21:28;5.80;99.90
15926;DHT22;8062;53.882;10.642;2024-01-27T08:22:48;5.80;99.90
15926;DHT22;8062;53.882;10.642;2024-01-27T08:24:10;5.80;99.90
15926;DHT22;8062;53.882;10.642;2024-01-27T08:25:30;5.80;99.90
15926;DHT22;8062;53.882;10.642;2024-01-27T08:26:50;5.80;99.90
15926;DHT22;8062;53.882;10.642;2024-01-27T08:28:09;5.80;99.90
15926;DHT22;8062;53.882;10.642;2024-01-27T08:29:29;5.80;99.90
15926;DHT22;8062;53.882;10.642;2024-01-27T08:30:48;5.70;99.90
15926;DHT22;8062;53.882;10.642;2024-01-27T08:32:07;5.70;99.90